sensor_id;sensor_type;location;lat;lon;timestamp;P1;durP1;ratioP1;P2;durP2;ratioP2
23222;SDS011;11780;13.904;100.620;2023-02-05T00:01:38;38.80;;;33.15;;
23222;SDS011;11780;13.904;100.620;2023-02-05T00:04:09;44.77;;;34.90;;
23222;SDS011;11780;13.904;100.620;2023-02-05T00:06:39;48.35;;;40.15;;
23222;SDS011;11780;13.904;100.620;2023-02-05T00:09:09;43.05;;;37.10;;
23222;SDS011;11780;13.904;100.620;2023-02-05T00:11:40;46.10;;;36.33;;
23222;SDS011;11780;13.904;100.620;2023-02-05T00:14:10;39.40;;;34.67;;
23222;SDS011;11780;13.904;100.620;2023-02-05T00:16:39;37.92;;;33.90;;
23222;SDS011;11780;13.904;100.620;2023-02-05T00:19:10;42.60;;;35.47;;
23222;SDS011;11780;13.904;100.620;2023-02-05T00:21:40;44.30;;;39.03;;
23222;SDS011;11780;13.904;100.620;2023-02-05T00:24:11;44.10;;;37.72;;
23222;SDS011;11780;13.904;100.620;2023-02-05T00:26:41;49.03;;;37.40;;
23222;SDS011;11780;13.904;100.620;2023-02-05T00:29:13;42.47;;;37.63;;
23222;SDS011;11780;13.904;100.620;2023-02-05T00:31:43;43.20;;;38.47;;
23222;SDS011;11780;13.904;100.620;2023-02-05T00:34:16;41.67;;;37.22;;
23222;SDS011;11780;13.904;100.620;2023-02-05T00:36:46;41.35;;;35.83;;
23222;SDS011;11780;13.904;100.620;2023-02-05T00:39:17;51.10;;;42.10;;
23222;SDS011;11780;13.904;100.620;2023-02-05T00:41:48;40.00;;;35.80;;
23222;SDS011;11780;13.904;100.620;2023-02-05T00:44:18;38.67;;;34.30;;
23222;SDS011;11780;13.904;100.620;2023-02-05T00:46:49;39.95;;;31.67;;
23222;SDS011;11780;13.904;100.620;2023-02-05T00:49:19;43.22;;;38.60;;
23222;SDS011;11780;13.904;100.620;2023-02-05T00:51:50;40.00;;;35.58;;
23222;SDS011;11780;13.904;100.620;2023-02-05T00:54:20;40.28;;;35.90;;
23222;SDS011;11780;13.904;100.620;2023-02-05T00:56:50;39.58;;;34.47;;
23222;SDS011;11780;13.904;100.620;2023-02-05T00:59:20;40.85;;;35.92;;
23222;SDS011;11780;13.904;100.620;2023-02-05T01:01:50;46.55;;;37.75;;
23222;SDS011;11780;13.904;100.620;2023-02-05T01:04:20;39.60;;;35.42;;
23222;SDS011;11780;13.904;100.620;2023-02-05T01:06:51;38.95;;;33.72;;
23222;SDS011;11780;13.904;100.620;2023-02-05T01:09:21;41.65;;;34.85;;
23222;SDS011;11780;13.904;100.620;2023-02-05T01:11:52;39.37;;;34.23;;
23222;SDS011;11780;13.904;100.620;2023-02-05T01:14:22;43.65;;;38.30;;
23222;SDS011;11780;13.904;100.620;2023-02-05T01:16:52;48.67;;;40.42;;
23222;SDS011;11780;13.904;100.620;2023-02-05T01:19:22;41.28;;;35.55;;
23222;SDS011;11780;13.904;100.620;2023-02-05T01:21:52;37.67;;;33.72;;
23222;SDS011;11780;13.904;100.620;2023-02-05T01:24:23;39.17;;;34.57;;
23222;SDS011;11780;13.904;100.620;2023-02-05T01:26:53;45.13;;;37.13;;
23222;SDS011;11780;13.904;100.620;2023-02-05T01:29:26;49.08;;;38.65;;
23222;SDS011;11780;13.904;100.620;2023-02-05T01:31:56;53.63;;;41.90;;
23222;SDS011;11780;13.904;100.620;2023-02-05T01:34:26;47.85;;;40.15;;
23222;SDS011;11780;13.904;100.620;2023-02-05T01:36:56;52.03;;;45.45;;
23222;SDS011;11780;13.904;100.620;2023-02-05T01:39:27;54.47;;;42.67;;
23222;SDS011;11780;13.904;100.620;2023-02-05T01:41:58;44.30;;;37.47;;
23222;SDS011;11780;13.904;100.620;2023-02-05T01:44:28;40.55;;;33.85;;
23222;SDS011;11780;13.904;100.620;2023-02-05T01:47:02;45.33;;;38.63;;
23222;SDS011;11780;13.904;100.620;2023-02-05T01:49:39;39.28;;;33.42;;
23222;SDS011;11780;13.904;100.620;2023-02-05T01:52:13;47.80;;;37.35;;
23222;SDS011;11780;13.904;100.620;2023-02-05T01:54:45;45.90;;;34.28;;
23222;SDS011;11780;13.904;100.620;2023-02-05T01:57:21;37.15;;;33.03;;
23222;SDS011;11780;13.904;100.620;2023-02-05T01:59:54;37.45;;;32.17;;
23222;SDS011;11780;13.904;100.620;2023-02-05T02:02:26;41.38;;;34.05;;
23222;SDS011;11780;13.904;100.620;2023-02-05T02:04:59;40.63;;;32.72;;
23222;SDS011;11780;13.904;100.620;2023-02-05T02:07:34;41.33;;;29.48;;
23222;SDS011;11780;13.904;100.620;2023-02-05T02:10:05;38.23;;;30.03;;
23222;SDS011;11780;13.904;100.620;2023-02-05T02:12:38;40.05;;;29.52;;
23222;SDS011;11780;13.904;100.620;2023-02-05T02:15:20;58.97;;;28.38;;
23222;SDS011;11780;13.904;100.620;2023-02-05T02:17:59;52.22;;;26.63;;
23222;SDS011;11780;13.904;100.620;2023-02-05T02:29:50;43.33;;;23.63;;
23222;SDS011;11780;13.904;100.620;2023-02-05T02:32:50;27.65;;;22.70;;
23222;SDS011;11780;13.904;100.620;2023-02-05T02:35:33;33.13;;;22.73;;
23222;SDS011;11780;13.904;100.620;2023-02-05T02:46:55;20.85;;;15.52;;
23222;SDS011;11780;13.904;100.620;2023-02-05T02:49:29;14.05;;;12.35;;
23222;SDS011;11780;13.904;100.620;2023-02-05T02:52:16;15.90;;;11.38;;
23222;SDS011;11780;13.904;100.620;2023-02-05T02:54:50;16.15;;;11.90;;
23222;SDS011;11780;13.904;100.620;2023-02-05T02:57:24;14.05;;;11.15;;
23222;SDS011;11780;13.904;100.620;2023-02-05T02:59:58;14.18;;;10.73;;
23222;SDS011;11780;13.904;100.620;2023-02-05T03:02:32;15.00;;;9.20;;
23222;SDS011;11780;13.904;100.620;2023-02-05T03:05:07;15.95;;;9.32;;
23222;SDS011;11780;13.904;100.620;2023-02-05T03:07:51;19.58;;;10.10;;
23222;SDS011;11780;13.904;100.620;2023-02-05T03:10:39;16.25;;;9.50;;
23222;SDS011;11780;13.904;100.620;2023-02-05T03:13:15;12.05;;;9.18;;
23222;SDS011;11780;13.904;100.620;2023-02-05T03:15:54;11.68;;;8.68;;
23222;SDS011;11780;13.904;100.620;2023-02-05T03:18:24;14.73;;;9.23;;
23222;SDS011;11780;13.904;100.620;2023-02-05T03:20:56;12.80;;;9.07;;
23222;SDS011;11780;13.904;100.620;2023-02-05T03:23:31;19.02;;;10.00;;
23222;SDS011;11780;13.904;100.620;2023-02-05T03:26:01;12.38;;;8.20;;
23222;SDS011;11780;13.904;100.620;2023-02-05T03:28:43;18.55;;;9.95;;
23222;SDS011;11780;13.904;100.620;2023-02-05T03:31:16;14.77;;;8.40;;
23222;SDS011;11780;13.904;100.620;2023-02-05T03:33:54;11.02;;;7.80;;
23222;SDS011;11780;13.904;100.620;2023-02-05T03:36:41;14.77;;;8.48;;
23222;SDS011;11780;13.904;100.620;2023-02-05T03:42:12;11.57;;;7.57;;
23222;SDS011;11780;13.904;100.620;2023-02-05T03:45:51;12.95;;;8.82;;
23222;SDS011;11780;13.904;100.620;2023-02-05T03:56:23;13.27;;;8.73;;
23222;SDS011;11780;13.904;100.620;2023-02-05T03:59:03;12.88;;;8.20;;
23222;SDS011;11780;13.904;100.620;2023-02-05T04:01:34;14.18;;;8.13;;
23222;SDS011;11780;13.904;100.620;2023-02-05T04:04:07;13.02;;;8.20;;
23222;SDS011;11780;13.904;100.620;2023-02-05T04:06:37;11.07;;;7.93;;
23222;SDS011;11780;13.904;100.620;2023-02-05T04:09:09;14.35;;;8.50;;
23222;SDS011;11780;13.904;100.620;2023-02-05T04:11:39;13.40;;;9.00;;
23222;SDS011;11780;13.904;100.620;2023-02-05T04:14:10;13.55;;;8.20;;
23222;SDS011;11780;13.904;100.620;2023-02-05T04:16:42;30.40;;;17.60;;
23222;SDS011;11780;13.904;100.620;2023-02-05T04:19:12;12.05;;;9.00;;
23222;SDS011;11780;13.904;100.620;2023-02-05T04:21:42;14.45;;;9.00;;
23222;SDS011;11780;13.904;100.620;2023-02-05T04:24:13;12.70;;;9.35;;
23222;SDS011;11780;13.904;100.620;2023-02-05T04:26:44;10.57;;;8.63;;
23222;SDS011;11780;13.904;100.620;2023-02-05T04:29:15;13.95;;;8.75;;
23222;SDS011;11780;13.904;100.620;2023-02-05T04:31:48;15.00;;;10.02;;
23222;SDS011;11780;13.904;100.620;2023-02-05T04:34:19;17.25;;;10.02;;
23222;SDS011;11780;13.904;100.620;2023-02-05T04:36:49;15.55;;;10.10;;
23222;SDS011;11780;13.904;100.620;2023-02-05T04:39:23;16.60;;;10.10;;
23222;SDS011;11780;13.904;100.620;2023-02-05T04:41:53;16.85;;;10.70;;
23222;SDS011;11780;13.904;100.620;2023-02-05T04:44:23;16.48;;;10.45;;
23222;SDS011;11780;13.904;100.620;2023-02-05T04:46:53;15.95;;;10.90;;
23222;SDS011;11780;13.904;100.620;2023-02-05T04:49:23;20.27;;;11.30;;
23222;SDS011;11780;13.904;100.620;2023-02-05T04:51:54;15.98;;;11.63;;
23222;SDS011;11780;13.904;100.620;2023-02-05T04:54:24;18.83;;;12.77;;
23222;SDS011;11780;13.904;100.620;2023-02-05T04:56:56;16.50;;;11.15;;
23222;SDS011;11780;13.904;100.620;2023-02-05T04:59:26;16.52;;;11.98;;
23222;SDS011;11780;13.904;100.620;2023-02-05T05:01:58;22.42;;;13.35;;
23222;SDS011;11780;13.904;100.620;2023-02-05T05:04:29;18.00;;;13.02;;
23222;SDS011;11780;13.904;100.620;2023-02-05T05:09:05;20.33;;;13.85;;
23222;SDS011;11780;13.904;100.620;2023-02-05T05:11:35;19.23;;;13.93;;
23222;SDS011;11780;13.904;100.620;2023-02-05T05:14:05;15.23;;;13.02;;
23222;SDS011;11780;13.904;100.620;2023-02-05T05:16:36;18.47;;;13.80;;
23222;SDS011;11780;13.904;100.620;2023-02-05T05:19:06;20.83;;;13.85;;
23222;SDS011;11780;13.904;100.620;2023-02-05T05:21:36;19.48;;;14.75;;
23222;SDS011;11780;13.904;100.620;2023-02-05T05:24:07;20.27;;;15.43;;
23222;SDS011;11780;13.904;100.620;2023-02-05T05:26:37;20.58;;;15.20;;
23222;SDS011;11780;13.904;100.620;2023-02-05T05:29:11;23.25;;;16.33;;
23222;SDS011;11780;13.904;100.620;2023-02-05T05:31:42;18.27;;;15.27;;
23222;SDS011;11780;13.904;100.620;2023-02-05T05:34:13;17.75;;;15.23;;
23222;SDS011;11780;13.904;100.620;2023-02-05T05:36:43;22.27;;;16.70;;
23222;SDS011;11780;13.904;100.620;2023-02-05T05:39:15;20.30;;;17.45;;
23222;SDS011;11780;13.904;100.620;2023-02-05T05:42:04;20.55;;;17.30;;
23222;SDS011;11780;13.904;100.620;2023-02-05T05:44:54;20.10;;;17.67;;
23222;SDS011;11780;13.904;100.620;2023-02-05T05:47:24;20.30;;;18.10;;
23222;SDS011;11780;13.904;100.620;2023-02-05T05:49:54;21.88;;;18.17;;
23222;SDS011;11780;13.904;100.620;2023-02-05T05:52:24;19.23;;;16.95;;
23222;SDS011;11780;13.904;100.620;2023-02-05T05:54:58;26.13;;;19.23;;
23222;SDS011;11780;13.904;100.620;2023-02-05T05:57:28;21.35;;;17.60;;
23222;SDS011;11780;13.904;100.620;2023-02-05T05:59:59;19.63;;;17.43;;
23222;SDS011;11780;13.904;100.620;2023-02-05T06:02:40;27.58;;;19.40;;
23222;SDS011;11780;13.904;100.620;2023-02-05T06:05:12;72.60;;;66.22;;
23222;SDS011;11780;13.904;100.620;2023-02-05T06:07:42;55.55;;;50.33;;
23222;SDS011;11780;13.904;100.620;2023-02-05T06:10:12;30.33;;;26.15;;
23222;SDS011;11780;13.904;100.620;2023-02-05T06:12:43;26.40;;;19.63;;
23222;SDS011;11780;13.904;100.620;2023-02-05T06:15:14;29.48;;;19.83;;
23222;SDS011;11780;13.904;100.620;2023-02-05T06:17:45;24.95;;;19.50;;
23222;SDS011;11780;13.904;100.620;2023-02-05T06:20:15;22.35;;;19.65;;
23222;SDS011;11780;13.904;100.620;2023-02-05T06:22:46;27.20;;;20.47;;
23222;SDS011;11780;13.904;100.620;2023-02-05T06:25:16;26.52;;;22.80;;
23222;SDS011;11780;13.904;100.620;2023-02-05T06:27:46;29.20;;;23.73;;
23222;SDS011;11780;13.904;100.620;2023-02-05T06:30:16;25.60;;;22.35;;
23222;SDS011;11780;13.904;100.620;2023-02-05T06:32:46;26.02;;;22.88;;
23222;SDS011;11780;13.904;100.620;2023-02-05T06:35:16;31.08;;;23.00;;
23222;SDS011;11780;13.904;100.620;2023-02-05T06:37:46;32.23;;;23.77;;
23222;SDS011;11780;13.904;100.620;2023-02-05T06:40:16;26.63;;;23.92;;
23222;SDS011;11780;13.904;100.620;2023-02-05T06:42:49;32.35;;;23.40;;
23222;SDS011;11780;13.904;100.620;2023-02-05T06:45:21;28.13;;;22.58;;
23222;SDS011;11780;13.904;100.620;2023-02-05T06:47:51;27.93;;;23.77;;
23222;SDS011;11780;13.904;100.620;2023-02-05T06:50:25;26.10;;;21.42;;
23222;SDS011;11780;13.904;100.620;2023-02-05T06:52:55;26.23;;;23.27;;
23222;SDS011;11780;13.904;100.620;2023-02-05T06:55:28;28.50;;;24.40;;
23222;SDS011;11780;13.904;100.620;2023-02-05T06:58:01;27.45;;;24.67;;
23222;SDS011;11780;13.904;100.620;2023-02-05T07:00:32;32.93;;;27.50;;
23222;SDS011;11780;13.904;100.620;2023-02-05T07:03:03;35.67;;;31.80;;
23222;SDS011;11780;13.904;100.620;2023-02-05T07:05:33;34.70;;;31.02;;
23222;SDS011;11780;13.904;100.620;2023-02-05T07:08:04;37.93;;;30.67;;
23222;SDS011;11780;13.904;100.620;2023-02-05T07:10:34;41.58;;;35.70;;
23222;SDS011;11780;13.904;100.620;2023-02-05T07:13:04;41.08;;;34.47;;
23222;SDS011;11780;13.904;100.620;2023-02-05T07:15:35;39.17;;;35.00;;
23222;SDS011;11780;13.904;100.620;2023-02-05T07:18:06;37.45;;;33.35;;
23222;SDS011;11780;13.904;100.620;2023-02-05T07:20:37;34.60;;;30.83;;
23222;SDS011;11780;13.904;100.620;2023-02-05T07:23:09;36.72;;;33.03;;
23222;SDS011;11780;13.904;100.620;2023-02-05T07:25:40;39.47;;;35.35;;
23222;SDS011;11780;13.904;100.620;2023-02-05T07:28:10;39.80;;;35.33;;
23222;SDS011;11780;13.904;100.620;2023-02-05T07:30:40;38.25;;;34.30;;
23222;SDS011;11780;13.904;100.620;2023-02-05T07:33:11;41.22;;;35.90;;
23222;SDS011;11780;13.904;100.620;2023-02-05T07:35:41;42.58;;;35.53;;
23222;SDS011;11780;13.904;100.620;2023-02-05T07:38:18;44.42;;;37.88;;
23222;SDS011;11780;13.904;100.620;2023-02-05T07:40:49;42.67;;;36.17;;
23222;SDS011;11780;13.904;100.620;2023-02-05T07:43:19;43.43;;;37.03;;
23222;SDS011;11780;13.904;100.620;2023-02-05T07:45:56;40.65;;;36.60;;
23222;SDS011;11780;13.904;100.620;2023-02-05T07:48:28;46.35;;;40.78;;
23222;SDS011;11780;13.904;100.620;2023-02-05T07:50:59;43.58;;;36.75;;
23222;SDS011;11780;13.904;100.620;2023-02-05T07:53:29;40.47;;;36.38;;
23222;SDS011;11780;13.904;100.620;2023-02-05T07:56:03;39.00;;;34.77;;
23222;SDS011;11780;13.904;100.620;2023-02-05T07:58:33;39.80;;;35.72;;
23222;SDS011;11780;13.904;100.620;2023-02-05T08:01:04;42.00;;;36.50;;
23222;SDS011;11780;13.904;100.620;2023-02-05T08:03:34;36.92;;;33.33;;
23222;SDS011;11780;13.904;100.620;2023-02-05T08:06:05;42.35;;;36.20;;
23222;SDS011;11780;13.904;100.620;2023-02-05T08:08:40;37.72;;;33.95;;
23222;SDS011;11780;13.904;100.620;2023-02-05T08:11:12;36.85;;;33.28;;
23222;SDS011;11780;13.904;100.620;2023-02-05T08:13:45;37.05;;;33.13;;
23222;SDS011;11780;13.904;100.620;2023-02-05T08:16:15;37.65;;;33.85;;
23222;SDS011;11780;13.904;100.620;2023-02-05T08:18:46;34.75;;;31.00;;
23222;SDS011;11780;13.904;100.620;2023-02-05T08:21:18;38.75;;;30.98;;
23222;SDS011;11780;13.904;100.620;2023-02-05T08:23:49;32.53;;;28.75;;
23222;SDS011;11780;13.904;100.620;2023-02-05T08:26:20;35.47;;;31.77;;
23222;SDS011;11780;13.904;100.620;2023-02-05T08:28:50;35.63;;;30.73;;
23222;SDS011;11780;13.904;100.620;2023-02-05T08:31:20;32.83;;;29.48;;
23222;SDS011;11780;13.904;100.620;2023-02-05T08:33:50;32.28;;;28.92;;
23222;SDS011;11780;13.904;100.620;2023-02-05T08:36:23;32.90;;;29.67;;
23222;SDS011;11780;13.904;100.620;2023-02-05T08:38:53;33.38;;;29.98;;
23222;SDS011;11780;13.904;100.620;2023-02-05T08:41:23;34.78;;;29.98;;
23222;SDS011;11780;13.904;100.620;2023-02-05T08:43:53;32.65;;;29.45;;
23222;SDS011;11780;13.904;100.620;2023-02-05T08:46:25;30.80;;;27.57;;
23222;SDS011;11780;13.904;100.620;2023-02-05T08:49:14;21.75;;;19.52;;
23222;SDS011;11780;13.904;100.620;2023-02-05T08:51:45;19.27;;;16.45;;
23222;SDS011;11780;13.904;100.620;2023-02-05T08:54:15;23.17;;;13.80;;
23222;SDS011;11780;13.904;100.620;2023-02-05T08:56:48;24.33;;;11.15;;
23222;SDS011;11780;13.904;100.620;2023-02-05T08:59:20;17.10;;;11.13;;
23222;SDS011;11780;13.904;100.620;2023-02-05T09:01:50;17.00;;;11.47;;
23222;SDS011;11780;13.904;100.620;2023-02-05T09:04:21;18.95;;;11.07;;
23222;SDS011;11780;13.904;100.620;2023-02-05T09:06:52;16.52;;;12.00;;
23222;SDS011;11780;13.904;100.620;2023-02-05T09:09:22;17.60;;;14.00;;
23222;SDS011;11780;13.904;100.620;2023-02-05T09:11:52;23.98;;;16.42;;
23222;SDS011;11780;13.904;100.620;2023-02-05T09:17:37;20.80;;;18.65;;
23222;SDS011;11780;13.904;100.620;2023-02-05T09:20:08;24.73;;;21.25;;
23222;SDS011;11780;13.904;100.620;2023-02-05T09:22:39;23.90;;;20.27;;
23222;SDS011;11780;13.904;100.620;2023-02-05T09:25:09;24.02;;;21.33;;
23222;SDS011;11780;13.904;100.620;2023-02-05T09:30:12;26.67;;;24.08;;
23222;SDS011;11780;13.904;100.620;2023-02-05T09:32:43;27.40;;;24.45;;
23222;SDS011;11780;13.904;100.620;2023-02-05T09:35:14;27.37;;;24.57;;
23222;SDS011;11780;13.904;100.620;2023-02-05T09:40:19;27.23;;;24.42;;
23222;SDS011;11780;13.904;100.620;2023-02-05T09:47:58;29.90;;;27.03;;
23222;SDS011;11780;13.904;100.620;2023-02-05T09:50:51;29.00;;;25.95;;
23222;SDS011;11780;13.904;100.620;2023-02-05T09:53:24;27.15;;;24.23;;
23222;SDS011;11780;13.904;100.620;2023-02-05T09:56:02;26.48;;;23.42;;
23222;SDS011;11780;13.904;100.620;2023-02-05T09:58:39;25.83;;;21.65;;
23222;SDS011;11780;13.904;100.620;2023-02-05T10:01:15;23.83;;;21.38;;
23222;SDS011;11780;13.904;100.620;2023-02-05T10:03:49;24.75;;;22.30;;
23222;SDS011;11780;13.904;100.620;2023-02-05T10:06:29;26.27;;;23.55;;
23222;SDS011;11780;13.904;100.620;2023-02-05T10:12:32;27.27;;;24.65;;
23222;SDS011;11780;13.904;100.620;2023-02-05T10:18:00;27.83;;;25.08;;
23222;SDS011;11780;13.904;100.620;2023-02-05T10:24:01;31.95;;;26.05;;
23222;SDS011;11780;13.904;100.620;2023-02-05T10:26:49;28.10;;;25.27;;
23222;SDS011;11780;13.904;100.620;2023-02-05T10:29:24;29.75;;;26.65;;
23222;SDS011;11780;13.904;100.620;2023-02-05T10:34:46;20.63;;;18.52;;
23222;SDS011;11780;13.904;100.620;2023-02-05T10:37:20;19.38;;;17.42;;
23222;SDS011;11780;13.904;100.620;2023-02-05T10:40:31;18.23;;;16.33;;
23222;SDS011;11780;13.904;100.620;2023-02-05T10:43:16;18.15;;;16.35;;
23222;SDS011;11780;13.904;100.620;2023-02-05T10:45:55;18.27;;;16.35;;
23222;SDS011;11780;13.904;100.620;2023-02-05T10:48:44;22.38;;;15.23;;
23222;SDS011;11780;13.904;100.620;2023-02-05T10:51:26;15.50;;;13.90;;
23222;SDS011;11780;13.904;100.620;2023-02-05T10:54:13;15.52;;;14.13;;
23222;SDS011;11780;13.904;100.620;2023-02-05T10:56:58;14.85;;;13.35;;
23222;SDS011;11780;13.904;100.620;2023-02-05T10:59:33;15.10;;;13.75;;
23222;SDS011;11780;13.904;100.620;2023-02-05T11:02:08;15.48;;;13.88;;
23222;SDS011;11780;13.904;100.620;2023-02-05T11:04:41;15.93;;;14.30;;
23222;SDS011;11780;13.904;100.620;2023-02-05T11:07:22;16.45;;;13.85;;
23222;SDS011;11780;13.904;100.620;2023-02-05T11:10:20;28.13;;;21.17;;
23222;SDS011;11780;13.904;100.620;2023-02-05T11:12:54;32.80;;;21.73;;
23222;SDS011;11780;13.904;100.620;2023-02-05T11:15:29;23.42;;;18.63;;
23222;SDS011;11780;13.904;100.620;2023-02-05T11:18:04;25.98;;;18.33;;
23222;SDS011;11780;13.904;100.620;2023-02-05T11:20:38;22.98;;;17.40;;
23222;SDS011;11780;13.904;100.620;2023-02-05T11:23:16;24.92;;;17.85;;
23222;SDS011;11780;13.904;100.620;2023-02-05T11:25:58;22.67;;;17.80;;
23222;SDS011;11780;13.904;100.620;2023-02-05T11:28:31;22.80;;;18.55;;
23222;SDS011;11780;13.904;100.620;2023-02-05T11:31:27;23.98;;;17.90;;
23222;SDS011;11780;13.904;100.620;2023-02-05T11:36:39;21.65;;;17.05;;
23222;SDS011;11780;13.904;100.620;2023-02-05T11:42:23;25.90;;;19.73;;
23222;SDS011;11780;13.904;100.620;2023-02-05T11:44:58;22.65;;;20.23;;
23222;SDS011;11780;13.904;100.620;2023-02-05T11:47:34;25.33;;;21.25;;
23222;SDS011;11780;13.904;100.620;2023-02-05T11:50:17;30.80;;;21.45;;
23222;SDS011;11780;13.904;100.620;2023-02-05T11:52:53;24.08;;;19.92;;
23222;SDS011;11780;13.904;100.620;2023-02-05T11:55:33;23.27;;;18.77;;
23222;SDS011;11780;13.904;100.620;2023-02-05T11:58:06;21.45;;;19.15;;
23222;SDS011;11780;13.904;100.620;2023-02-05T12:03:59;29.42;;;25.80;;
23222;SDS011;11780;13.904;100.620;2023-02-05T12:06:35;31.13;;;25.45;;
23222;SDS011;11780;13.904;100.620;2023-02-05T12:09:13;37.05;;;25.45;;
23222;SDS011;11780;13.904;100.620;2023-02-05T12:38:20;27.30;;;22.40;;
23222;SDS011;11780;13.904;100.620;2023-02-05T12:43:36;30.17;;;23.10;;
23222;SDS011;11780;13.904;100.620;2023-02-05T12:46:13;28.70;;;22.23;;
23222;SDS011;11780;13.904;100.620;2023-02-05T12:48:54;32.90;;;20.90;;
23222;SDS011;11780;13.904;100.620;2023-02-05T12:51:58;26.35;;;21.55;;
23222;SDS011;11780;13.904;100.620;2023-02-05T12:54:46;24.85;;;20.23;;
23222;SDS011;11780;13.904;100.620;2023-02-05T12:57:31;24.15;;;20.25;;
23222;SDS011;11780;13.904;100.620;2023-02-05T13:00:19;25.88;;;22.90;;
23222;SDS011;11780;13.904;100.620;2023-02-05T13:02:54;26.60;;;21.40;;
23222;SDS011;11780;13.904;100.620;2023-02-05T13:05:44;25.75;;;21.63;;
23222;SDS011;11780;13.904;100.620;2023-02-05T13:16:58;25.63;;;20.48;;
23222;SDS011;11780;13.904;100.620;2023-02-05T13:19:57;26.13;;;21.65;;
23222;SDS011;11780;13.904;100.620;2023-02-05T13:22:34;24.52;;;20.67;;
23222;SDS011;11780;13.904;100.620;2023-02-05T13:25:37;27.35;;;22.20;;
23222;SDS011;11780;13.904;100.620;2023-02-05T13:31:29;25.15;;;20.55;;
23222;SDS011;11780;13.904;100.620;2023-02-05T13:34:08;26.35;;;21.88;;
23222;SDS011;11780;13.904;100.620;2023-02-05T13:39:34;24.60;;;20.17;;
23222;SDS011;11780;13.904;100.620;2023-02-05T13:42:41;23.95;;;20.40;;
23222;SDS011;11780;13.904;100.620;2023-02-05T14:00:10;27.88;;;20.38;;
23222;SDS011;11780;13.904;100.620;2023-02-05T14:02:44;23.40;;;20.48;;
23222;SDS011;11780;13.904;100.620;2023-02-05T14:05:25;27.17;;;20.83;;
23222;SDS011;11780;13.904;100.620;2023-02-05T14:07:58;23.77;;;19.87;;
23222;SDS011;11780;13.904;100.620;2023-02-05T14:11:04;45.80;;;36.58;;
23222;SDS011;11780;13.904;100.620;2023-02-05T14:19:25;27.05;;;20.42;;
23222;SDS011;11780;13.904;100.620;2023-02-05T14:22:32;27.60;;;20.40;;
23222;SDS011;11780;13.904;100.620;2023-02-05T14:28:48;24.48;;;20.42;;
23222;SDS011;11780;13.904;100.620;2023-02-05T14:37:00;35.20;;;21.75;;
23222;SDS011;11780;13.904;100.620;2023-02-05T14:39:32;22.80;;;20.30;;
23222;SDS011;11780;13.904;100.620;2023-02-05T14:42:05;26.48;;;20.55;;
23222;SDS011;11780;13.904;100.620;2023-02-05T14:44:37;22.23;;;19.55;;
23222;SDS011;11780;13.904;100.620;2023-02-05T14:49:57;27.23;;;19.75;;
23222;SDS011;11780;13.904;100.620;2023-02-05T14:52:33;26.90;;;20.70;;
23222;SDS011;11780;13.904;100.620;2023-02-05T14:57:45;25.73;;;20.45;;
23222;SDS011;11780;13.904;100.620;2023-02-05T15:10:51;377.48;;;350.00;;
23222;SDS011;11780;13.904;100.620;2023-02-05T15:13:41;363.30;;;336.27;;
23222;SDS011;11780;13.904;100.620;2023-02-05T22:42:48;368.73;;;339.95;;
23222;SDS011;11780;13.904;100.620;2023-02-05T22:45:18;393.10;;;354.97;;
23222;SDS011;11780;13.904;100.620;2023-02-05T22:47:50;423.60;;;383.67;;
23222;SDS011;11780;13.904;100.620;2023-02-05T22:52:50;400.75;;;361.30;;
23222;SDS011;11780;13.904;100.620;2023-02-05T22:55:22;477.02;;;430.88;;
